Observations for LAMEZIA TERME, Italy (LICA)

LICA 100150Z 30021KT 9999 FEW020 BKN050 14/10 Q1010 RERA
LICA 100050Z 29022G33KT 5000 RA FEW020 BKN040 13/12 Q1010   
LICA 092350Z 27028KT 8000 FEW020 BKN050 16/12 Q1010 
LICA 092250Z 27024G36KT 8000 FEW020 BKN050 16/11 Q1011  
LICA 092150Z 27022KT 8000 FEW020 BKN050 15/13 Q1012 
LICA 092056Z 28025G37KT 2000 +RA FEW010 BKN025 13/12 Q1012
LICA 092050Z 27026G37KT 5000 RA FEW010 BKN030 13/12 Q1012   
LICA 091950Z 25023G36KT 9999 FEW025 BKN070 17/13 Q1012  
LICA 091850Z 25024KT 8000 -RA SCT025 BKN060 17/13 Q1013 
LICA 091750Z 25021G33KT 8000 -RA FEW025 BKN050 16/12 Q1013 RERA 
LICA 091650Z 24020KT 8000 RA SCT025 BKN060 16/12 Q1013  
LICA 091550Z 25025G36KT 9999 SCT025 BKN060 16/11 Q1013  
LICA 091450Z 26022G33KT 9999 BKN025 16/13 Q1014 
LICA 091350Z 25022KT 9999 SCT025 BKN060 16/11 Q1014 
LICA 091250Z 27020KT 9999 FEW025 BKN040 14/12 Q1015 
LICA 091150Z 27021KT 9999 FEW025 SCT040 16/09 Q1016 
LICA 091050Z 27018KT 9999 FEW025 BKN040 16/09 Q1016 
LICA 090950Z 28016KT 9999 FEW025 BKN040 16/07 Q1017 
LICA 090850Z 28016KT 9999 FEW025 16/07 Q1018
LICA 090750Z 28012KT 9999 FEW025 15/07 Q1018
LICA 090650Z 28010KT 9999 FEW025 14/07 Q1017
LICA 090550Z 28010KT 9999 FEW020 13/06 Q1017
LICA 090450Z 29010KT 9999 FEW020 13/07 Q1016
LICA 090350Z 29010KT 9999 FEW020 13/08 Q1016
LICA 090150Z 29015KT 9999 SCT020 15/09 Q1015